Time;durP1;ratioP1;P1;durP2;ratioP2;P2;SDS_P1;SDS_P2;PMS_P1;PMS_P2;Temp;Humidity;BMP_temperature;BMP_pressure;BME280_temperature;BME280_humidity;BME280_pressure;Samples;Min_cycle;Max_cycle;Signal;HPM_P1;HPM_P2
2024/04/01 00:00:37;;;;;;;1.00;0.50;;;13.30;99.90;;;;;;4990876;28;20448;-46
2024/04/01 00:03:05;;;;;;;1.27;0.60;;;13.30;99.90;;;;;;5008211;28;20440;-45
2024/04/01 00:05:31;;;;;;;1.93;0.70;;;13.30;99.90;;;;;;4993698;28;20498;-46
2024/04/01 00:07:59;;;;;;;1.37;0.77;;;13.30;99.90;;;;;;4998420;28;20523;-45
2024/04/01 00:10:25;;;;;;;1.00;0.50;;;13.30;99.90;;;;;;4989682;28;20466;-45
2024/04/01 00:12:53;;;;;;;1.40;0.53;;;13.30;99.90;;;;;;5001017;28;20494;-46
2024/04/01 00:15:21;;;;;;;1.80;1.03;;;13.30;99.90;;;;;;4995087;28;20468;-46
2024/04/01 00:17:50;;;;;;;2.30;0.67;;;13.30;99.90;;;;;;5001084;28;20469;-46
2024/04/01 00:20:16;;;;;;;1.77;0.67;;;13.30;99.90;;;;;;5002426;28;20477;-46
2024/04/01 00:22:43;;;;;;;1.30;0.63;;;13.30;99.90;;;;;;4993170;28;20918;-47
2024/04/01 00:25:09;;;;;;;1.47;0.70;;;13.30;99.90;;;;;;5004511;28;20469;-46
2024/04/01 00:27:36;;;;;;;2.07;0.70;;;13.30;99.90;;;;;;4997384;28;20443;-46
2024/04/01 00:30:03;;;;;;;1.00;0.60;;;13.30;99.90;;;;;;5000437;28;20496;-46
2024/04/01 00:32:32;;;;;;;1.20;0.80;;;13.30;99.90;;;;;;4993422;28;20442;-46
2024/04/01 00:35:00;;;;;;;1.10;0.50;;;13.30;99.90;;;;;;4993380;28;20475;-46
2024/04/01 00:37:27;;;;;;;1.07;0.60;;;13.30;99.90;;;;;;5000418;28;20534;-47
2024/04/01 00:39:54;;;;;;;1.20;0.60;;;13.30;99.90;;;;;;4996130;28;20606;-46
2024/04/01 00:42:21;;;;;;;1.80;0.50;;;13.30;99.90;;;;;;4993129;28;20471;-48
2024/04/01 00:44:47;;;;;;;1.10;0.77;;;13.30;99.90;;;;;;5003850;28;20523;-47
2024/04/01 00:47:15;;;;;;;1.90;0.67;;;13.30;99.90;;;;;;5000670;28;20531;-47
2024/04/01 00:49:41;;;;;;;1.20;0.60;;;13.30;99.90;;;;;;5001227;28;21298;-47
2024/04/01 00:52:10;;;;;;;1.37;0.70;;;13.30;99.90;;;;;;4998606;28;20488;-47
2024/04/01 00:54:36;;;;;;;1.90;0.73;;;13.30;99.90;;;;;;4993029;28;20415;-48
2024/04/01 00:57:04;;;;;;;1.00;0.50;;;13.30;99.90;;;;;;5004677;28;20434;-47
2024/04/01 00:59:33;;;;;;;1.00;0.50;;;13.30;99.90;;;;;;5000547;28;20474;-46
2024/04/01 01:02:00;;;;;;;1.10;0.50;;;13.30;99.90;;;;;;4998045;28;20437;-48
2024/04/01 01:04:27;;;;;;;1.37;0.63;;;13.30;99.90;;;;;;5000296;28;20471;-47
2024/04/01 01:06:55;;;;;;;2.20;0.73;;;13.30;99.90;;;;;;5002205;28;20479;-47
2024/04/01 01:09:23;;;;;;;1.00;0.60;;;13.30;99.90;;;;;;5001843;28;20527;-47
2024/04/01 01:11:50;;;;;;;1.60;0.90;;;13.30;99.90;;;;;;4991186;28;20807;-48
2024/04/01 01:14:17;;;;;;;1.47;0.70;;;13.30;99.90;;;;;;4995303;28;20458;-48
2024/04/01 01:16:44;;;;;;;1.40;0.70;;;13.30;99.90;;;;;;4992966;28;20525;-48
2024/04/01 01:19:10;;;;;;;1.10;0.60;;;13.30;99.90;;;;;;4992463;28;20494;-47
2024/04/01 01:21:38;;;;;;;1.00;0.60;;;13.30;99.90;;;;;;5002889;28;20519;-47
2024/04/01 01:24:05;;;;;;;1.20;0.60;;;13.30;99.90;;;;;;5001676;28;20819;-47
2024/04/01 01:26:33;;;;;;;1.90;0.70;;;13.30;99.90;;;;;;4999708;28;20430;-47
2024/04/01 01:28:59;;;;;;;1.20;0.70;;;13.30;99.90;;;;;;4994731;28;20469;-48
2024/04/01 01:31:26;;;;;;;1.57;0.60;;;13.30;99.90;;;;;;4999527;28;20873;-47
2024/04/01 01:33:53;;;;;;;1.00;0.50;;;13.30;99.90;;;;;;5000018;28;20452;-48
2024/04/01 01:36:20;;;;;;;1.30;0.90;;;13.30;99.90;;;;;;4997926;28;20525;-47
2024/04/01 01:38:47;;;;;;;1.27;0.60;;;13.30;99.90;;;;;;4997367;28;20777;-48
2024/04/01 01:41:15;;;;;;;1.33;0.60;;;13.30;99.90;;;;;;4992504;28;20431;-47
2024/04/01 01:43:43;;;;;;;1.00;0.50;;;13.30;99.90;;;;;;4994156;28;20456;-47
2024/04/01 01:46:10;;;;;;;1.30;0.67;;;13.20;99.90;;;;;;5002404;28;20523;-48
2024/04/01 01:48:36;;;;;;;1.43;0.50;;;13.30;99.90;;;;;;4999960;28;20468;-46
2024/04/01 01:51:04;;;;;;;0.90;0.50;;;13.30;99.90;;;;;;4990582;28;20456;-47
2024/04/01 01:53:30;;;;;;;1.30;0.63;;;13.30;99.90;;;;;;5002862;28;20447;-47
2024/04/01 01:55:57;;;;;;;1.00;0.60;;;13.30;99.90;;;;;;4997324;28;20533;-47
2024/04/01 01:58:25;;;;;;;0.90;0.40;;;13.30;99.90;;;;;;4990396;28;20816;-49
2024/04/01 02:00:52;;;;;;;1.00;0.60;;;13.20;99.90;;;;;;4999504;28;21067;-47
2024/04/01 02:03:18;;;;;;;1.00;0.50;;;13.30;99.90;;;;;;4991542;28;20434;-47
2024/04/01 02:05:45;;;;;;;1.10;0.43;;;13.30;99.90;;;;;;5021835;28;20552;-46
2024/04/01 02:08:11;;;;;;;3.30;0.57;;;13.20;99.90;;;;;;4991058;28;20461;-47
2024/04/01 02:10:38;;;;;;;1.00;0.60;;;13.20;99.90;;;;;;4991078;28;20485;-47
2024/04/01 02:13:09;;;;;;;1.20;0.60;;;13.20;99.90;;;;;;5002239;28;20481;-47
2024/04/01 02:15:37;;;;;;;0.90;0.43;;;13.20;99.90;;;;;;4991184;28;20484;-46
2024/04/01 02:18:03;;;;;;;1.10;0.60;;;13.20;99.90;;;;;;5000192;28;20486;-48
2024/04/01 02:20:35;;;;;;;1.40;0.77;;;13.20;99.90;;;;;;4993796;28;20465;-47
2024/04/01 02:23:02;;;;;;;0.90;0.40;;;13.20;99.90;;;;;;4991096;28;20472;-47
2024/04/01 02:25:29;;;;;;;1.10;0.50;;;13.20;99.90;;;;;;5004444;28;20567;-46
2024/04/01 02:27:55;;;;;;;1.10;0.60;;;13.20;99.90;;;;;;4994955;28;20441;-48
2024/04/01 02:30:22;;;;;;;1.00;0.57;;;13.20;99.90;;;;;;4998790;28;20556;-49
2024/04/01 02:32:50;;;;;;;1.20;0.80;;;13.20;99.90;;;;;;4993369;28;20476;-47
2024/04/01 02:35:17;;;;;;;1.03;0.50;;;13.20;99.90;;;;;;4991794;28;20429;-47
2024/04/01 02:37:44;;;;;;;1.63;0.67;;;13.20;99.90;;;;;;4990557;28;20447;-47
2024/04/01 02:40:11;;;;;;;1.20;0.60;;;13.20;99.90;;;;;;5000206;28;21045;-47
2024/04/01 02:42:38;;;;;;;1.47;0.60;;;13.20;99.90;;;;;;4995547;28;20854;-48
2024/04/01 02:45:05;;;;;;;1.00;0.50;;;13.20;99.90;;;;;;4995742;28;20878;-48
2024/04/01 02:47:31;;;;;;;1.40;0.70;;;13.20;99.90;;;;;;4999144;28;20448;-47
2024/04/01 02:50:00;;;;;;;1.20;0.50;;;13.20;99.90;;;;;;4998135;28;20855;-44
2024/04/01 02:52:26;;;;;;;1.00;0.50;;;13.20;99.90;;;;;;4997635;28;20527;-47
2024/04/01 02:54:53;;;;;;;3.60;0.80;;;13.20;99.90;;;;;;4990786;28;20464;-47
2024/04/01 02:57:19;;;;;;;1.80;0.60;;;13.20;99.90;;;;;;4991204;28;20530;-47
2024/04/01 02:59:49;;;;;;;1.03;0.60;;;13.20;99.90;;;;;;4990416;28;20893;-51
2024/04/01 03:02:15;;;;;;;2.07;0.50;;;13.20;99.90;;;;;;5005810;28;20466;-47
2024/04/01 03:04:43;;;;;;;1.43;1.30;;;13.20;99.90;;;;;;5000224;28;20562;-47
2024/04/01 03:07:10;;;;;;;2.20;0.57;;;13.20;99.90;;;;;;4994700;28;20479;-47
2024/04/01 03:09:38;;;;;;;1.10;0.60;;;13.20;99.90;;;;;;4997982;28;20465;-47
2024/04/01 03:12:04;;;;;;;1.70;0.50;;;13.20;99.90;;;;;;4989121;28;20592;-47
2024/04/01 03:14:31;;;;;;;1.47;0.50;;;13.20;99.90;;;;;;5002890;28;20510;-49
2024/04/01 03:16:57;;;;;;;1.10;0.30;;;13.10;99.90;;;;;;4998199;28;20435;-46
2024/04/01 03:19:25;;;;;;;0.93;0.50;;;13.10;99.90;;;;;;4997982;28;20471;-47
2024/04/01 03:21:51;;;;;;;1.10;0.40;;;13.10;99.90;;;;;;4990669;28;20455;-46
2024/04/01 03:24:22;;;;;;;0.87;0.40;;;13.10;99.90;;;;;;4998040;28;21041;-46
2024/04/01 03:26:48;;;;;;;1.03;0.40;;;13.10;99.90;;;;;;4989648;28;20430;-46
2024/04/01 03:29:15;;;;;;;1.00;0.47;;;13.10;99.90;;;;;;4993479;28;20754;-46
2024/04/01 03:31:41;;;;;;;1.20;0.70;;;13.10;99.90;;;;;;4989415;28;20440;-46
2024/04/01 03:34:08;;;;;;;1.30;0.60;;;13.10;99.90;;;;;;5001612;28;20484;-46
2024/04/01 03:36:35;;;;;;;1.17;0.60;;;13.10;99.90;;;;;;4990014;28;20532;-47
2024/04/01 03:39:04;;;;;;;1.00;0.50;;;13.10;99.90;;;;;;4993412;28;20472;-46
2024/04/01 03:41:32;;;;;;;1.20;0.43;;;13.10;99.90;;;;;;4998497;28;20437;-46
2024/04/01 03:44:00;;;;;;;1.57;0.57;;;13.10;99.90;;;;;;4992923;28;20444;-46
2024/04/01 03:46:26;;;;;;;1.60;0.43;;;13.10;99.90;;;;;;5001314;28;20547;-46
2024/04/01 03:48:53;;;;;;;1.10;0.40;;;13.10;99.90;;;;;;4997517;28;20544;-46
2024/04/01 03:51:19;;;;;;;1.30;0.63;;;13.10;99.90;;;;;;5007427;28;20439;-47
2024/04/01 03:53:46;;;;;;;1.30;0.60;;;13.10;99.90;;;;;;5001525;28;20449;-46
2024/04/01 03:56:13;;;;;;;0.97;0.50;;;13.10;99.90;;;;;;4999982;28;20520;-46
2024/04/01 03:58:42;;;;;;;0.80;0.40;;;13.10;99.90;;;;;;4997082;28;20501;-46
2024/04/01 04:01:08;;;;;;;1.20;0.50;;;13.10;99.90;;;;;;5001641;28;20488;-47
2024/04/01 04:03:35;;;;;;;1.40;1.00;;;13.10;99.90;;;;;;4994182;28;20616;-46
2024/04/01 04:06:01;;;;;;;1.37;0.70;;;13.10;99.90;;;;;;5003202;28;20497;-46
2024/04/01 04:08:28;;;;;;;1.37;0.53;;;13.10;99.90;;;;;;4998299;28;20448;-46
2024/04/01 04:10:54;;;;;;;1.20;0.60;;;13.10;99.90;;;;;;4993244;28;20950;-46
2024/04/01 04:13:22;;;;;;;1.00;0.50;;;13.10;99.90;;;;;;4998033;28;20483;-46
2024/04/01 04:15:49;;;;;;;1.00;0.50;;;13.10;99.90;;;;;;5001833;28;20433;-47
2024/04/01 04:18:16;;;;;;;1.30;0.50;;;13.10;99.90;;;;;;4993552;28;20960;-46
2024/04/01 04:20:42;;;;;;;1.53;0.80;;;13.10;99.90;;;;;;5003432;28;20446;-46
2024/04/01 04:23:09;;;;;;;0.90;0.40;;;13.10;99.90;;;;;;4998340;28;20562;-46
2024/04/01 04:25:36;;;;;;;0.97;0.50;;;13.10;99.90;;;;;;4993315;28;20458;-46
2024/04/01 04:28:03;;;;;;;1.00;0.57;;;13.10;99.90;;;;;;4999581;28;20492;-45
2024/04/01 04:30:29;;;;;;;1.00;0.60;;;13.10;99.90;;;;;;4993007;28;20547;-46
2024/04/01 04:32:58;;;;;;;1.17;0.57;;;13.10;99.90;;;;;;5002860;28;20449;-46
2024/04/01 04:35:25;;;;;;;1.50;0.77;;;13.00;99.90;;;;;;5004740;28;20503;-46
2024/04/01 04:37:52;;;;;;;1.30;0.67;;;13.10;99.90;;;;;;5001583;28;20490;-46
2024/04/01 04:40:18;;;;;;;1.10;0.50;;;13.00;99.90;;;;;;4993119;28;20638;-46
2024/04/01 04:42:45;;;;;;;1.43;0.60;;;13.10;99.90;;;;;;5004036;28;20478;-46
2024/04/01 04:45:11;;;;;;;1.13;0.53;;;13.00;99.90;;;;;;5001734;28;20550;-46
2024/04/01 04:47:38;;;;;;;1.10;0.60;;;13.00;99.90;;;;;;4994885;28;20939;-45
2024/04/01 04:50:07;;;;;;;1.63;0.70;;;13.00;99.90;;;;;;5003164;28;20531;-46
2024/04/01 04:52:34;;;;;;;0.90;0.50;;;13.00;99.90;;;;;;5006253;28;20479;-46
2024/04/01 04:55:00;;;;;;;1.40;0.63;;;13.00;99.90;;;;;;5009220;28;20520;-46
2024/04/01 04:57:27;;;;;;;1.10;0.40;;;13.00;99.90;;;;;;4992896;28;20522;-46
2024/04/01 04:59:53;;;;;;;1.40;0.60;;;13.00;99.90;;;;;;5000674;28;20711;-46
2024/04/01 05:02:20;;;;;;;1.27;0.57;;;13.00;99.90;;;;;;5008641;28;20513;-45
2024/04/01 05:04:46;;;;;;;1.20;0.60;;;13.00;99.90;;;;;;5008102;28;20597;-46
2024/04/01 05:07:15;;;;;;;1.70;0.40;;;13.00;99.90;;;;;;4996874;28;20466;-46
2024/04/01 05:09:41;;;;;;;2.67;0.70;;;13.00;99.90;;;;;;5000693;28;20534;-46
2024/04/01 05:12:09;;;;;;;1.10;0.50;;;13.00;99.90;;;;;;4998768;28;20572;-46
2024/04/01 05:14:35;;;;;;;1.03;0.50;;;13.00;99.90;;;;;;4993024;28;20514;-46
2024/04/01 05:17:02;;;;;;;1.20;0.53;;;13.00;99.90;;;;;;5000925;28;20460;-46
2024/04/01 05:19:30;;;;;;;1.03;0.50;;;13.00;99.90;;;;;;5000004;28;20517;-46
2024/04/01 05:21:57;;;;;;;0.90;0.40;;;13.00;99.90;;;;;;5000608;28;20482;-46
2024/04/01 05:24:25;;;;;;;1.10;0.50;;;13.00;99.90;;;;;;4992433;28;20890;-46
2024/04/01 05:26:52;;;;;;;1.20;0.50;;;13.00;99.90;;;;;;5002072;28;20429;-46
2024/04/01 05:29:18;;;;;;;1.37;0.53;;;13.00;99.90;;;;;;4995901;28;21091;-48
2024/04/01 05:31:45;;;;;;;1.10;0.53;;;13.00;99.90;;;;;;5000106;28;20473;-48
2024/04/01 05:34:12;;;;;;;1.47;0.63;;;13.00;99.90;;;;;;5003535;28;20511;-46
2024/04/01 05:36:39;;;;;;;1.17;0.47;;;13.00;99.90;;;;;;4993844;28;20444;-50
2024/04/01 05:39:06;;;;;;;1.30;0.60;;;13.00;99.90;;;;;;4995520;28;20579;-46
2024/04/01 05:41:34;;;;;;;1.00;0.40;;;13.00;99.90;;;;;;4993497;28;20572;-46
2024/04/01 05:44:00;;;;;;;0.90;0.50;;;13.00;99.90;;;;;;5005639;28;20483;-46
2024/04/01 05:46:30;;;;;;;1.73;0.50;;;13.00;99.90;;;;;;4994106;28;20540;-46
2024/04/01 05:48:56;;;;;;;1.00;0.60;;;13.00;99.90;;;;;;5000239;28;20543;-46
2024/04/01 05:51:23;;;;;;;1.17;0.70;;;12.90;99.90;;;;;;4994732;28;20790;-46
2024/04/01 05:53:50;;;;;;;1.70;0.60;;;12.90;99.90;;;;;;5001342;28;20429;-46
2024/04/01 05:56:17;;;;;;;1.83;0.60;;;12.90;99.90;;;;;;4992675;28;20479;-45
2024/04/01 05:58:45;;;;;;;3.03;0.97;;;12.90;99.90;;;;;;4998340;28;20459;-45
2024/04/01 06:01:12;;;;;;;1.00;0.50;;;12.90;99.90;;;;;;4999520;28;20494;-45
2024/04/01 06:03:38;;;;;;;1.40;0.50;;;12.90;99.90;;;;;;4995396;28;20454;-46
2024/04/01 06:06:06;;;;;;;1.43;1.07;;;12.90;99.90;;;;;;4993282;28;20500;-46
2024/04/01 06:08:32;;;;;;;1.00;0.40;;;12.90;99.90;;;;;;5000024;28;20438;-46
2024/04/01 06:11:01;;;;;;;2.37;0.90;;;12.90;99.90;;;;;;4998309;28;20449;-46
2024/04/01 06:13:27;;;;;;;1.20;0.50;;;12.90;99.90;;;;;;4989715;28;20442;-46
2024/04/01 06:15:56;;;;;;;1.30;0.50;;;12.90;99.90;;;;;;5009621;28;20844;-46
2024/04/01 06:18:22;;;;;;;1.00;0.40;;;12.90;99.90;;;;;;4995625;28;21071;-46
2024/04/01 06:20:49;;;;;;;1.00;0.50;;;12.90;99.90;;;;;;4990886;28;20475;-45
2024/04/01 06:23:16;;;;;;;1.00;0.50;;;12.90;99.90;;;;;;4993058;28;20850;-46
2024/04/01 06:25:43;;;;;;;1.63;0.70;;;12.90;99.90;;;;;;5003046;28;20474;-46
2024/04/01 06:28:10;;;;;;;1.10;0.60;;;12.90;99.90;;;;;;4999365;28;20542;-46
2024/04/01 06:30:37;;;;;;;1.00;0.40;;;12.90;99.90;;;;;;4991700;28;20951;-46
2024/04/01 06:33:04;;;;;;;1.33;0.60;;;12.90;99.90;;;;;;4991148;28;20465;-46
2024/04/01 06:35:31;;;;;;;1.10;0.43;;;12.90;99.90;;;;;;5005515;28;20456;-47
2024/04/01 06:37:58;;;;;;;1.37;0.43;;;12.90;99.90;;;;;;4999515;28;20497;-46
2024/04/01 06:40:26;;;;;;;1.00;0.40;;;12.90;99.90;;;;;;5005164;28;20448;-46
2024/04/01 06:42:52;;;;;;;1.20;0.53;;;12.90;99.90;;;;;;4995366;28;20445;-50
2024/04/01 06:45:19;;;;;;;1.23;0.70;;;12.90;99.90;;;;;;5008669;28;20463;-47
2024/04/01 06:47:46;;;;;;;1.00;0.60;;;12.90;99.90;;;;;;5001683;28;20437;-50
2024/04/01 06:50:14;;;;;;;1.20;0.47;;;12.90;99.90;;;;;;5003274;28;20555;-47
2024/04/01 06:52:41;;;;;;;1.00;0.50;;;12.90;99.90;;;;;;4998917;28;20435;-47
2024/04/01 06:55:08;;;;;;;1.13;0.50;;;12.90;99.90;;;;;;5003713;28;20437;-47
2024/04/01 06:57:34;;;;;;;0.90;0.50;;;12.90;99.90;;;;;;4989642;28;20529;-48
2024/04/01 07:00:05;;;;;;;1.63;0.70;;;12.90;99.90;;;;;;4989829;28;20475;-48
2024/04/01 07:02:31;;;;;;;1.07;0.47;;;12.80;99.90;;;;;;4999426;28;20529;-46
2024/04/01 07:04:58;;;;;;;1.00;0.50;;;12.90;99.90;;;;;;4991904;28;20548;-47
2024/04/01 07:07:27;;;;;;;1.30;0.60;;;12.80;99.90;;;;;;4991593;28;20503;-46
2024/04/01 07:09:54;;;;;;;1.50;0.50;;;12.80;99.90;;;;;;4973995;28;21035;-45
2024/04/01 07:12:23;;;;;;;1.27;0.67;;;12.80;99.90;;;;;;4998775;28;20797;-46
2024/04/01 07:14:51;;;;;;;1.37;0.80;;;12.80;99.90;;;;;;4995417;28;20463;-45
2024/04/01 07:17:17;;;;;;;1.63;0.60;;;12.80;99.90;;;;;;5009639;28;20532;-46
2024/04/01 07:19:44;;;;;;;1.20;0.50;;;12.80;99.90;;;;;;4995950;28;20461;-46
2024/04/01 07:22:10;;;;;;;1.40;0.63;;;12.80;99.90;;;;;;4996743;28;20529;-46
2024/04/01 07:24:39;;;;;;;1.63;0.60;;;12.80;99.90;;;;;;4991621;28;20826;-45
2024/04/01 07:27:05;;;;;;;1.90;0.87;;;12.80;99.90;;;;;;5002740;28;20537;-46
2024/04/01 07:29:33;;;;;;;1.30;0.50;;;12.80;99.90;;;;;;5004230;28;20925;-46
2024/04/01 07:31:59;;;;;;;1.93;0.40;;;12.80;99.90;;;;;;4995902;28;20528;-46
2024/04/01 07:34:26;;;;;;;1.10;0.50;;;12.80;99.90;;;;;;5000743;28;20429;-46
2024/04/01 07:36:52;;;;;;;1.30;0.50;;;12.80;99.90;;;;;;5005547;28;20445;-46
2024/04/01 07:39:19;;;;;;;1.93;0.60;;;12.80;99.90;;;;;;5005277;28;20976;-45
2024/04/01 07:41:46;;;;;;;1.47;0.60;;;12.80;99.90;;;;;;4996910;28;21014;-46
2024/04/01 07:44:14;;;;;;;1.10;0.50;;;12.80;99.90;;;;;;5003994;28;20548;-46
2024/04/01 07:46:40;;;;;;;1.10;0.50;;;12.80;99.90;;;;;;4996785;28;20552;-46
2024/04/01 07:49:07;;;;;;;1.40;0.70;;;12.80;99.90;;;;;;5000359;28;20467;-45
2024/04/01 07:51:34;;;;;;;1.33;0.60;;;12.80;99.90;;;;;;4998953;28;20537;-46
2024/04/01 07:54:01;;;;;;;1.90;0.90;;;12.80;99.90;;;;;;4997316;28;20984;-46
2024/04/01 07:56:28;;;;;;;1.30;0.60;;;12.80;99.90;;;;;;4999610;28;20526;-46
2024/04/01 07:58:57;;;;;;;1.10;0.50;;;12.80;99.90;;;;;;5008167;28;20495;-46
2024/04/01 08:01:25;;;;;;;1.00;0.50;;;12.80;99.90;;;;;;4996093;28;20448;-46
2024/04/01 08:03:51;;;;;;;1.10;0.60;;;12.80;99.90;;;;;;5003714;28;21055;-46
2024/04/01 08:06:18;;;;;;;1.83;0.80;;;12.80;99.90;;;;;;4995762;28;20904;-46
2024/04/01 08:08:44;;;;;;;1.20;0.70;;;12.80;99.90;;;;;;4999940;28;20461;-46
2024/04/01 08:11:12;;;;;;;1.33;0.60;;;12.80;99.90;;;;;;5003403;28;20433;-46
2024/04/01 08:13:38;;;;;;;1.00;0.40;;;12.80;99.90;;;;;;5002847;28;20481;-46
2024/04/01 08:16:07;;;;;;;1.40;0.60;;;12.80;99.90;;;;;;5002768;28;20458;-46
2024/04/01 08:18:35;;;;;;;2.03;0.60;;;12.70;99.90;;;;;;5005480;28;20567;-46
2024/04/01 08:21:03;;;;;;;1.10;0.50;;;12.70;99.90;;;;;;4996098;28;20509;-45
2024/04/01 08:23:31;;;;;;;1.53;0.80;;;12.80;99.90;;;;;;4993838;28;20430;-46
2024/04/01 08:25:58;;;;;;;1.33;0.60;;;12.70;99.90;;;;;;5000817;28;20561;-46
2024/04/01 08:28:25;;;;;;;1.10;0.53;;;12.70;99.90;;;;;;4999297;28;20502;-46
2024/04/01 08:30:52;;;;;;;1.27;0.60;;;12.70;99.90;;;;;;4998683;28;20524;-46
2024/04/01 08:33:21;;;;;;;1.60;0.67;;;12.70;99.90;;;;;;4999295;28;20447;-46
2024/04/01 08:35:48;;;;;;;1.50;0.63;;;12.70;99.90;;;;;;5000164;28;20533;-48
2024/04/01 08:38:15;;;;;;;1.40;0.70;;;12.70;99.90;;;;;;4991720;28;20540;-50
2024/04/01 08:40:46;;;;;;;1.13;0.60;;;12.70;99.90;;;;;;5003323;28;20494;-46
2024/04/01 08:43:18;;;;;;;1.73;0.80;;;12.70;99.90;;;;;;5003338;28;20536;-47
2024/04/01 08:45:45;;;;;;;1.20;0.60;;;12.70;99.90;;;;;;5007973;28;20506;-47
2024/04/01 08:48:13;;;;;;;1.40;0.60;;;12.70;99.90;;;;;;5006344;28;20524;-47
2024/04/01 08:50:54;;;;;;;1.20;0.60;;;12.70;99.90;;;;;;5008375;28;20877;-46
2024/04/01 08:53:33;;;;;;;1.40;0.60;;;12.70;99.90;;;;;;5003281;28;20516;-46
2024/04/01 08:55:59;;;;;;;1.30;0.67;;;12.70;99.90;;;;;;4994216;28;20950;-46
2024/04/01 08:58:28;;;;;;;1.20;0.60;;;12.70;99.90;;;;;;5000664;28;20435;-47
2024/04/01 09:00:54;;;;;;;1.17;0.60;;;12.70;99.90;;;;;;5003627;28;20495;-46
2024/04/01 09:03:21;;;;;;;1.43;0.70;;;12.70;99.90;;;;;;5008133;28;20450;-47
2024/04/01 09:05:48;;;;;;;1.40;0.67;;;12.70;99.90;;;;;;5007773;28;20471;-47
2024/04/01 09:08:16;;;;;;;1.10;0.70;;;12.70;99.90;;;;;;5026887;28;20576;-47
2024/04/01 09:10:42;;;;;;;1.73;0.90;;;12.70;99.90;;;;;;5006939;28;20490;-49
2024/04/01 09:13:13;;;;;;;1.47;0.77;;;12.70;99.90;;;;;;4999119;28;20468;-47
2024/04/01 09:15:40;;;;;;;1.70;0.77;;;12.70;99.90;;;;;;5025387;28;20950;-47
2024/04/01 09:18:12;;;;;;;1.50;0.60;;;12.70;99.90;;;;;;4999923;28;20483;-46
2024/04/01 09:20:39;;;;;;;1.20;0.57;;;12.70;99.90;;;;;;4995928;28;20439;-47
2024/04/01 09:23:08;;;;;;;1.40;1.00;;;12.70;99.90;;;;;;4979386;28;21353;-46
2024/04/01 09:25:35;;;;;;;1.53;0.73;;;12.70;99.90;;;;;;4995805;28;20896;-46
2024/04/01 09:28:02;;;;;;;1.60;0.93;;;12.70;99.90;;;;;;4995206;28;20454;-47
2024/04/01 09:30:28;;;;;;;1.27;0.50;;;12.70;99.90;;;;;;4999902;28;21024;-46
2024/04/01 09:32:56;;;;;;;1.13;0.50;;;12.70;99.90;;;;;;5000493;28;20455;-47
2024/04/01 09:35:23;;;;;;;1.00;0.50;;;12.70;99.90;;;;;;5001864;28;20448;-46
2024/04/01 09:37:50;;;;;;;1.50;0.77;;;12.70;99.90;;;;;;5000251;28;20939;-47
2024/04/01 09:40:18;;;;;;;1.43;0.53;;;12.70;99.90;;;;;;5001637;28;20558;-46
2024/04/01 09:42:46;;;;;;;1.13;0.70;;;12.70;99.90;;;;;;5005653;28;21021;-46
2024/04/01 09:45:15;;;;;;;1.97;0.57;;;12.70;99.90;;;;;;5004457;28;20968;-46
2024/04/01 09:47:43;;;;;;;1.40;0.77;;;12.70;99.90;;;;;;4999425;28;20517;-46
2024/04/01 09:50:10;;;;;;;1.50;0.83;;;12.70;99.90;;;;;;4999046;28;20462;-49
2024/04/01 09:52:37;;;;;;;1.30;0.60;;;12.60;99.90;;;;;;4998802;28;20521;-46
2024/04/01 09:55:06;;;;;;;1.53;0.67;;;12.70;99.90;;;;;;5001530;28;20455;-48
2024/04/01 09:58:09;;;;;;;1.37;0.80;;;12.60;99.90;;;;;;4997106;28;20531;-47
2024/04/01 10:00:50;;;;;;;1.23;0.80;;;12.70;99.90;;;;;;4974423;28;20562;-47
2024/04/01 10:03:50;;;;;;;1.23;0.50;;;12.70;99.90;;;;;;5001178;28;20576;-46
2024/04/01 10:07:06;;;;;;;2.00;0.57;;;12.70;99.90;;;;;;5001357;28;20548;-46
2024/04/01 10:10:06;;;;;;;1.67;1.37;;;12.70;99.90;;;;;;4998443;28;20467;-46
2024/04/01 10:13:06;;;;;;;2.53;0.77;;;12.60;99.90;;;;;;4993012;28;20794;-48
2024/04/01 10:15:55;;;;;;;2.27;0.87;;;12.60;99.90;;;;;;4999549;28;20487;-47
2024/04/01 10:18:37;;;;;;;1.10;0.50;;;12.60;99.90;;;;;;4999737;28;20507;-50
2024/04/01 10:21:36;;;;;;;1.00;0.50;;;12.70;99.90;;;;;;4997651;28;20540;-47
2024/04/01 10:24:54;;;;;;;1.40;0.70;;;12.60;99.90;;;;;;4997455;28;20530;-46
2024/04/01 10:28:01;;;;;;;1.30;0.60;;;12.60;99.90;;;;;;4894611;29;20905;-46
2024/04/01 10:30:49;;;;;;;1.43;0.80;;;12.70;99.90;;;;;;4864120;29;20531;-47
2024/04/01 10:33:58;;;;;;;1.30;0.60;;;12.60;99.90;;;;;;4997973;28;20498;-46
2024/04/01 10:36:41;;;;;;;2.13;0.60;;;12.60;99.90;;;;;;4989020;28;20455;-46
2024/04/01 10:39:52;;;;;;;1.20;0.80;;;12.60;99.90;;;;;;4991580;28;20462;-46
2024/04/01 10:42:57;;;;;;;1.30;0.63;;;12.60;99.90;;;;;;4997330;28;20562;-46
2024/04/01 10:45:54;;;;;;;1.33;0.57;;;12.60;99.90;;;;;;4986205;28;20588;-47
2024/04/01 10:48:25;;;;;;;2.03;0.73;;;12.60;99.90;;;;;;5002358;28;20473;-46
2024/04/01 10:51:32;;;;;;;1.50;0.73;;;12.60;99.90;;;;;;4987163;28;20974;-47
2024/04/01 10:54:05;;;;;;;1.23;0.57;;;12.60;99.90;;;;;;5005105;28;20441;-47
2024/04/01 10:57:00;;;;;;;1.23;0.70;;;12.60;99.90;;;;;;4997114;28;20928;-46
2024/04/01 11:00:09;;;;;;;1.27;0.53;;;12.60;99.90;;;;;;4998381;28;20504;-47
2024/04/01 11:03:13;;;;;;;1.30;0.70;;;12.60;99.90;;;;;;4990600;28;20461;-46
2024/04/01 11:06:08;;;;;;;2.13;0.83;;;12.60;99.90;;;;;;4997008;28;20489;-46
2024/04/01 11:08:48;;;;;;;1.40;0.80;;;12.60;99.90;;;;;;4999096;28;20537;-47
2024/04/01 11:11:30;;;;;;;1.33;0.80;;;12.60;99.90;;;;;;4990948;28;20437;-46
2024/04/01 11:14:02;;;;;;;1.57;0.90;;;12.60;99.90;;;;;;5000242;28;20433;-45
2024/04/01 11:16:30;;;;;;;1.60;0.63;;;12.60;99.90;;;;;;4998437;28;20997;-46
2024/04/01 11:19:31;;;;;;;1.20;0.50;;;12.60;99.90;;;;;;4991896;28;20527;-48
2024/04/01 11:21:59;;;;;;;1.30;0.70;;;12.60;99.90;;;;;;4990321;28;20871;-47
2024/04/01 11:24:39;;;;;;;1.40;0.70;;;12.60;99.90;;;;;;4987138;28;20432;-47
2024/04/01 11:27:29;;;;;;;1.80;0.60;;;12.60;99.90;;;;;;4992007;28;21022;-46
2024/04/01 11:30:23;;;;;;;1.90;0.67;;;12.60;99.90;;;;;;5007112;28;20549;-49
2024/04/01 11:32:55;;;;;;;1.87;0.60;;;12.60;99.90;;;;;;4987435;28;20446;-47
2024/04/01 11:35:40;;;;;;;1.37;0.77;;;12.60;99.90;;;;;;4989296;28;20966;-46
2024/04/01 11:38:21;;;;;;;1.30;0.60;;;12.60;99.90;;;;;;4992582;28;20437;-50
2024/04/01 11:40:50;;;;;;;1.97;0.60;;;12.60;99.90;;;;;;4985502;28;20477;-46
2024/04/01 11:43:20;;;;;;;1.40;0.70;;;12.60;99.90;;;;;;4987661;28;20939;-48
2024/04/01 11:45:49;;;;;;;1.30;0.67;;;12.60;99.90;;;;;;4990648;28;20441;-46
2024/04/01 11:48:18;;;;;;;1.67;0.80;;;12.60;99.90;;;;;;4987174;28;20535;-50
2024/04/01 11:50:49;;;;;;;1.33;0.70;;;12.60;99.90;;;;;;4990408;28;20445;-46
2024/04/01 11:53:15;;;;;;;1.30;0.70;;;12.60;99.90;;;;;;4996310;28;20477;-47
2024/04/01 11:55:51;;;;;;;2.13;0.60;;;12.60;99.90;;;;;;5001635;28;20943;-46
2024/04/01 11:58:19;;;;;;;1.00;0.50;;;12.60;99.90;;;;;;4999539;28;20472;-47
2024/04/01 12:00:53;;;;;;;2.10;1.10;;;12.60;99.90;;;;;;4976053;28;20528;-47
2024/04/01 12:03:21;;;;;;;1.20;0.73;;;12.60;99.90;;;;;;5000657;28;20529;-46
2024/04/01 12:05:49;;;;;;;2.03;0.70;;;12.60;99.90;;;;;;5000013;28;20467;-47
2024/04/01 12:08:18;;;;;;;1.03;0.60;;;12.60;99.90;;;;;;4996531;28;20556;-46
2024/04/01 12:10:46;;;;;;;4.95;1.10;;;12.60;99.90;;;;;;4991035;28;20509;-47
2024/04/01 12:13:13;;;;;;;1.27;0.60;;;12.60;99.90;;;;;;5004990;28;20729;-47
2024/04/01 12:15:43;;;;;;;1.40;0.73;;;12.60;99.90;;;;;;5004026;28;20733;-46
2024/04/01 12:18:11;;;;;;;1.30;0.73;;;12.60;99.90;;;;;;4992521;28;21097;-47
2024/04/01 12:20:39;;;;;;;1.40;0.70;;;12.60;99.90;;;;;;5001277;28;20480;-46
2024/04/01 12:23:09;;;;;;;1.77;0.80;;;12.50;99.90;;;;;;4996610;28;20524;-47
2024/04/01 12:25:39;;;;;;;1.57;0.70;;;12.60;99.90;;;;;;5001614;28;20441;-47
2024/04/01 12:28:07;;;;;;;1.73;0.90;;;12.60;99.90;;;;;;5001820;28;20472;-47
2024/04/01 12:30:36;;;;;;;1.77;0.83;;;12.60;99.90;;;;;;4990896;28;20457;-47
2024/04/01 12:33:04;;;;;;;1.30;0.70;;;12.60;99.90;;;;;;5002531;28;20441;-47
2024/04/01 12:35:32;;;;;;;1.77;1.00;;;12.60;99.90;;;;;;4976875;28;20446;-46
2024/04/01 12:38:03;;;;;;;1.90;0.80;;;12.50;99.90;;;;;;4985478;28;20446;-47
2024/04/01 12:40:43;;;;;;;1.40;0.80;;;12.50;99.90;;;;;;4991613;28;20465;-46
2024/04/01 12:43:12;;;;;;;1.60;0.70;;;12.60;99.90;;;;;;4986019;28;20858;-49
2024/04/01 12:45:41;;;;;;;1.60;0.80;;;12.60;99.90;;;;;;4989894;28;20468;-50
2024/04/01 12:48:12;;;;;;;1.27;0.70;;;12.50;99.90;;;;;;4995824;28;20470;-45
2024/04/01 12:50:43;;;;;;;1.83;1.00;;;12.50;99.90;;;;;;4990545;28;20560;-47
2024/04/01 12:53:38;;;;;;;1.40;0.60;;;12.50;99.90;;;;;;4990113;28;20540;-46
2024/04/01 12:56:14;;;;;;;1.27;0.80;;;12.60;99.90;;;;;;4998892;28;20534;-49
2024/04/01 12:58:49;;;;;;;1.67;0.77;;;12.60;99.90;;;;;;4997901;28;20483;-47
2024/04/01 13:01:30;;;;;;;1.10;0.60;;;12.50;99.90;;;;;;4999697;28;20451;-46
2024/04/01 13:04:11;;;;;;;1.40;0.70;;;12.50;99.90;;;;;;4997608;28;20603;-48